Time;durP1;ratioP1;P1;durP2;ratioP2;P2;SDS_P1;SDS_P2;PMS_P1;PMS_P2;Temp;Humidity;BMP_temperature;BMP_pressure;BME280_temperature;BME280_humidity;BME280_pressure;Samples;Min_cycle;Max_cycle;Signal;HPM_P1;HPM_P2
2022/10/09 00:00:30;;;;;;;;;9.25;8.00;;;;;14.74;51.90;101989.31;5059001;28;45332;-63
2022/10/09 00:02:55;;;;;;;;;6.00;6.00;;;;;14.75;51.97;101991.06;5059059;28;45245;-63
2022/10/09 00:05:22;;;;;;;;;7.00;6.75;;;;;14.74;51.99;101990.19;5059117;28;45245;-63
2022/10/09 00:07:48;;;;;;;;;8.50;7.25;;;;;14.72;52.34;101993.84;5058664;28;45477;-63
2022/10/09 00:10:13;;;;;;;;;5.75;5.75;;;;;14.68;52.44;101981.41;5058936;28;45379;-63
2022/10/09 00:12:38;;;;;;;;;6.00;5.75;;;;;14.70;52.01;101982.25;5060427;28;45807;-63
2022/10/09 00:15:04;;;;;;;;;6.00;6.00;;;;;14.70;52.19;101982.25;5058365;28;45411;-63
2022/10/09 00:17:29;;;;;;;;;6.00;4.75;;;;;14.62;52.18;101977.13;5057550;28;45623;-63
2022/10/09 00:19:55;;;;;;;;;3.50;3.50;;;;;14.64;51.90;101978.81;5059007;28;45353;-63
2022/10/09 00:22:20;;;;;;;;;4.00;3.25;;;;;14.59;52.23;101972.72;5057097;28;45406;-63
2022/10/09 00:24:45;;;;;;;;;7.00;5.00;;;;;14.62;52.29;101980.69;5058333;28;45549;-63
2022/10/09 00:27:11;;;;;;;;;6.00;4.50;;;;;14.60;52.25;101976.25;5058048;28;45350;-63
2022/10/09 00:29:36;;;;;;;;;8.75;8.00;;;;;14.55;52.08;101981.75;5058501;28;45454;-63
2022/10/09 00:32:01;;;;;;;;;7.00;7.00;;;;;14.51;52.25;101977.38;5057525;28;45566;-63
2022/10/09 00:34:27;;;;;;;;;7.25;5.50;;;;;14.50;52.25;101975.66;5058173;28;45442;-63
2022/10/09 00:36:52;;;;;;;;;6.50;5.75;;;;;14.42;52.09;101965.13;5058323;28;46751;-62
2022/10/09 00:39:18;;;;;;;;;9.00;6.75;;;;;14.44;52.49;101976.69;5058313;28;45698;-63
2022/10/09 00:41:43;;;;;;;;;6.50;4.25;;;;;14.41;52.04;101976.75;5058396;28;45487;-63
2022/10/09 00:44:48;;;;;;;;;5.75;3.25;;;;;14.38;52.27;101975.97;5046471;28;45612;-63
2022/10/09 00:47:22;;;;;;;;;3.75;3.00;;;;;14.31;52.32;101960.97;5057322;28;46067;-63
2022/10/09 00:49:50;;;;;;;;;5.25;4.25;;;;;14.34;52.69;101975.19;5058367;28;45925;-63
2022/10/09 00:52:16;;;;;;;;;3.00;3.00;;;;;14.32;53.00;101974.38;5058373;28;45453;-63
2022/10/09 00:54:42;;;;;;;;;4.00;4.00;;;;;14.32;52.89;101970.81;5058420;28;45501;-63
2022/10/09 00:57:08;;;;;;;;;6.25;4.00;;;;;14.30;53.03;101972.63;5057915;28;45393;-63
2022/10/09 00:59:34;;;;;;;;;3.00;3.00;;;;;14.22;52.82;101956.75;5058501;28;45663;-63
2022/10/09 01:01:59;;;;;;;;;6.00;5.00;;;;;14.26;53.09;101975.41;5057660;28;45257;-63
2022/10/09 01:04:25;;;;;;;;;4.00;4.00;;;;;14.19;53.42;101967.56;5058410;28;45494;-62
2022/10/09 01:07:25;;;;;;;;;5.00;5.00;;;;;14.21;53.00;101974.66;5058004;28;46196;-63
2022/10/09 01:09:53;;;;;;;;;5.00;5.00;;;;;14.18;52.81;101965.81;5059040;28;45312;-63
2022/10/09 01:12:29;;;;;;;;;4.25;4.00;;;;;14.13;52.73;101957.88;5056747;28;45358;-63
2022/10/09 01:15:07;;;;;;;;;5.25;5.25;;;;;14.13;53.19;101959.69;5060263;28;45377;-63
2022/10/09 01:17:40;;;;;;;;;3.00;2.75;;;;;14.08;53.04;101954.44;5060586;28;46203;-63
2022/10/09 01:20:22;;;;;;;;;2.00;2.00;;;;;14.09;53.19;101950.84;5061621;28;45586;-63
2022/10/09 01:23:16;;;;;;;;;3.25;3.25;;;;;14.08;53.37;101941.00;5061542;28;45480;-63
2022/10/09 01:26:00;;;;;;;;;5.25;3.75;;;;;14.06;53.45;101938.38;5024439;28;45528;-63
2022/10/09 01:28:28;;;;;;;;;3.75;3.75;;;;;14.06;53.58;101933.00;5060695;28;46408;-63
2022/10/09 01:30:58;;;;;;;;;5.25;5.00;;;;;14.06;53.52;101935.69;5060723;28;45265;-63
2022/10/09 01:33:25;;;;;;;;;4.00;4.00;;;;;14.05;53.73;101933.94;5050027;28;45336;-63
2022/10/09 01:35:52;;;;;;;;;4.25;4.25;;;;;14.05;54.03;101923.19;5059238;28;45554;-63
2022/10/09 01:38:21;;;;;;;;;5.00;4.00;;;;;14.05;53.67;101931.25;5042670;28;48584;-63
2022/10/09 01:40:48;;;;;;;;;7.50;5.25;;;;;13.97;54.04;101911.78;5060842;28;45378;-62
2022/10/09 01:43:14;;;;;;;;;4.50;3.75;;;;;14.03;54.27;101918.78;5061387;28;45474;-63
2022/10/09 01:45:42;;;;;;;;;5.00;4.50;;;;;14.01;53.88;101907.22;5060208;28;45566;-63
2022/10/09 01:48:16;;;;;;;;;5.00;4.50;;;;;13.93;54.15;101893.13;5060760;28;47265;-63
2022/10/09 01:50:51;;;;;;;;;4.00;4.00;;;;;13.92;54.19;101894.06;5061365;28;45344;-62
2022/10/09 01:53:18;;;;;;;;;5.25;4.50;;;;;13.95;53.87;101894.84;5060766;28;45306;-63
2022/10/09 01:56:08;;;;;;;;;3.50;3.00;;;;;13.90;54.09;101881.56;5060853;28;45356;-63
2022/10/09 01:59:05;;;;;;;;;4.75;4.00;;;;;13.94;53.97;101893.09;5060558;28;45621;-63
2022/10/09 02:01:36;;;;;;;;;3.75;3.75;;;;;13.93;54.36;101885.94;5047505;28;45361;-63
2022/10/09 02:04:06;;;;;;;;;3.00;3.00;;;;;13.85;53.81;101875.44;5057459;28;45327;-63
2022/10/09 02:06:33;;;;;;;;;5.50;3.00;;;;;13.82;54.00;101866.59;5049552;28;45354;-63
2022/10/09 02:09:01;;;;;;;;;3.50;3.00;;;;;13.83;53.85;101877.28;5060859;28;46708;-63
2022/10/09 02:11:30;;;;;;;;;3.75;3.75;;;;;13.79;54.08;101864.88;5060390;28;45574;-62
2022/10/09 02:13:57;;;;;;;;;3.00;3.00;;;;;13.83;54.32;101871.03;5060719;28;45323;-63
2022/10/09 02:16:36;;;;;;;;;3.25;3.25;;;;;13.81;54.08;101867.50;5060552;28;45598;-63
2022/10/09 02:19:18;;;;;;;;;4.00;3.00;;;;;13.79;54.30;101859.50;5059508;28;45480;-63
2022/10/09 02:21:54;;;;;;;;;5.25;5.00;;;;;13.76;53.99;101869.44;5060362;28;45355;-63
2022/10/09 02:24:21;;;;;;;;;3.00;3.00;;;;;13.68;54.26;101842.81;5057989;28;45395;-63
2022/10/09 02:26:47;;;;;;;;;5.25;5.25;;;;;13.71;54.36;101849.00;5060226;28;45510;-63
2022/10/09 02:29:14;;;;;;;;;3.50;3.25;;;;;13.74;54.51;101849.81;5060484;28;46287;-62
2022/10/09 02:31:41;;;;;;;;;4.75;4.00;;;;;13.68;54.32;101849.06;5059896;28;45552;-63
2022/10/09 02:34:10;;;;;;;;;3.25;3.25;;;;;13.69;54.44;101855.31;5056873;28;45441;-63
2022/10/09 02:36:37;;;;;;;;;4.00;3.50;;;;;13.68;54.55;101850.84;5059385;28;45621;-63
2022/10/09 02:39:04;;;;;;;;;5.50;3.75;;;;;13.65;54.82;101850.97;5059950;28;45456;-63
2022/10/09 02:41:30;;;;;;;;;4.00;3.00;;;;;13.63;54.61;101842.97;5060055;28;45478;-63
2022/10/09 02:43:55;;;;;;;;;5.25;4.25;;;;;13.62;54.90;101841.19;5060217;28;45324;-63
2022/10/09 02:46:21;;;;;;;;;6.00;5.75;;;;;13.61;54.70;101838.53;5060156;28;45254;-63
2022/10/09 02:48:46;;;;;;;;;11.25;6.00;;;;;13.55;54.78;101826.19;5060007;28;45377;-63
2022/10/09 02:51:12;;;;;;;;;6.00;5.50;;;;;13.62;54.63;101834.94;5060059;28;45285;-62
2022/10/09 02:53:38;;;;;;;;;8.75;6.50;;;;;13.61;54.87;101828.69;5059538;28;45474;-63
2022/10/09 02:56:03;;;;;;;;;7.75;6.75;;;;;13.57;55.15;101823.47;5059996;28;45288;-63
2022/10/09 02:58:29;;;;;;;;;7.75;7.50;;;;;13.56;55.17;101827.94;5059750;28;45394;-63
2022/10/09 03:00:55;;;;;;;;;9.00;7.75;;;;;13.60;55.24;101823.34;5059307;28;45463;-63
2022/10/09 03:03:20;;;;;;;;;7.50;6.25;;;;;13.55;55.04;101818.16;5058995;28;45722;-63
2022/10/09 03:05:46;;;;;;;;;6.50;6.50;;;;;13.58;55.11;101822.53;5059329;28;45441;-62
2022/10/09 03:08:12;;;;;;;;;6.00;6.00;;;;;13.55;55.10;101820.81;5058748;28;46416;-63
2022/10/09 03:10:38;;;;;;;;;7.00;7.00;;;;;13.48;55.21;101805.81;5041761;28;45398;-62
2022/10/09 03:13:04;;;;;;;;;6.25;5.00;;;;;13.52;55.28;101818.22;5059672;28;45422;-63
2022/10/09 03:15:33;;;;;;;;;5.00;5.00;;;;;13.43;55.40;101800.59;5059974;28;45407;-63
2022/10/09 03:17:58;;;;;;;;;8.00;5.25;;;;;13.50;55.40;101815.59;5059545;28;46403;-63
2022/10/09 03:20:23;;;;;;;;;6.25;5.75;;;;;13.48;55.19;101805.81;5059907;28;45615;-62
2022/10/09 03:22:49;;;;;;;;;5.00;5.00;;;;;13.47;55.29;101807.63;5059501;28;45270;-63
2022/10/09 03:25:14;;;;;;;;;6.00;5.50;;;;;13.46;55.14;101804.97;5059231;28;47963;-63
2022/10/09 03:27:39;;;;;;;;;5.75;4.00;;;;;13.45;54.64;101800.56;5059589;28;46239;-63
2022/10/09 03:30:05;;;;;;;;;5.50;4.25;;;;;13.40;55.23;101792.63;5059544;28;45241;-62
2022/10/09 03:32:31;;;;;;;;;6.00;4.00;;;;;13.45;54.97;101803.22;5057862;28;45513;-63
2022/10/09 03:34:56;;;;;;;;;4.50;4.00;;;;;13.44;55.31;101798.78;5058165;28;45418;-63
2022/10/09 03:37:21;;;;;;;;;4.00;4.00;;;;;13.41;55.10;101802.41;5058992;28;46321;-63
2022/10/09 03:39:47;;;;;;;;;4.00;4.00;;;;;13.39;55.10;101788.16;5059068;28;45316;-62
2022/10/09 03:42:12;;;;;;;;;5.50;3.00;;;;;13.37;54.86;101781.09;5058866;28;45576;-63
2022/10/09 03:44:38;;;;;;;;;4.50;3.25;;;;;13.41;54.74;101793.50;5059442;28;45395;-63
2022/10/09 03:47:03;;;;;;;;;3.00;2.00;;;;;13.33;54.96;101789.22;5058950;28;45372;-63
2022/10/09 03:49:28;;;;;;;;;2.50;2.50;;;;;13.37;54.91;101786.47;5059457;28;45468;-63
2022/10/09 03:51:53;;;;;;;;;4.00;4.00;;;;;13.37;54.97;101787.34;5058953;28;45482;-63
2022/10/09 03:54:19;;;;;;;;;3.00;3.00;;;;;13.36;55.10;101782.00;5058823;28;45423;-63
2022/10/09 03:56:44;;;;;;;;;4.25;3.00;;;;;13.36;55.26;101784.69;5058822;28;45998;-63
2022/10/09 03:59:10;;;;;;;;;3.75;3.25;;;;;13.34;54.78;101785.59;5059096;28;45393;-63
2022/10/09 04:01:35;;;;;;;;;4.00;3.00;;;;;13.31;54.76;101783.00;5058539;28;45422;-63
2022/10/09 04:04:01;;;;;;;;;4.25;3.25;;;;;13.31;55.00;101782.09;5055674;28;45775;-62
2022/10/09 04:06:26;;;;;;;;;3.25;2.25;;;;;13.30;55.33;101786.59;5058576;28;45425;-62
2022/10/09 04:08:51;;;;;;;;;4.00;3.00;;;;;13.29;55.19;101782.13;5059152;28;45323;-63
2022/10/09 04:11:17;;;;;;;;;3.00;3.00;;;;;13.30;55.00;101785.72;5058822;28;45320;-63
2022/10/09 04:13:42;;;;;;;;;3.00;3.00;;;;;13.27;55.37;101786.66;5058782;28;45550;-63
2022/10/09 04:16:11;;;;;;;;;5.75;4.50;;;;;13.21;55.43;101776.09;5058822;28;45364;-63
2022/10/09 04:18:43;;;;;;;;;4.50;3.50;;;;;13.20;55.29;101771.69;5041379;28;45466;-63
2022/10/09 04:21:10;;;;;;;;;4.00;4.00;;;;;13.20;54.81;101777.03;5058797;28;45914;-63
2022/10/09 04:23:36;;;;;;;;;4.00;4.00;;;;;13.19;55.25;101775.28;5058699;28;45548;-63
2022/10/09 04:26:02;;;;;;;;;4.00;3.00;;;;;13.18;55.19;101769.94;5058383;28;45350;-63
2022/10/09 04:28:29;;;;;;;;;4.00;4.00;;;;;13.19;55.31;101772.59;5058854;28;45676;-62
2022/10/09 04:30:56;;;;;;;;;9.50;4.00;;;;;13.19;55.03;101763.69;5057576;28;45592;-63
2022/10/09 04:33:22;;;;;;;;;3.00;3.00;;;;;13.20;55.27;101773.47;5052699;28;45267;-63
2022/10/09 04:35:50;;;;;;;;;3.75;3.00;;;;;13.19;55.10;101771.72;5057689;28;45405;-63
2022/10/09 04:38:16;;;;;;;;;4.50;3.00;;;;;13.18;54.95;101776.22;5058278;28;45642;-63
2022/10/09 04:40:41;;;;;;;;;5.00;4.00;;;;;13.18;55.09;101770.84;5058301;28;45402;-63
2022/10/09 04:43:07;;;;;;;;;5.00;3.50;;;;;13.20;55.09;101771.69;5059938;28;45631;-63
2022/10/09 04:45:32;;;;;;;;;3.75;3.75;;;;;13.13;55.11;101759.34;5061990;28;45363;-63
2022/10/09 04:47:58;;;;;;;;;5.00;5.00;;;;;13.05;54.96;101761.38;5054457;28;45742;-62
2022/10/09 04:50:23;;;;;;;;;3.75;3.75;;;;;13.11;55.33;101770.13;5062147;28;45378;-62
2022/10/09 04:52:48;;;;;;;;;5.50;4.50;;;;;13.05;55.49;101758.69;5061206;28;45555;-62
2022/10/09 04:55:14;;;;;;;;;3.25;3.00;;;;;13.06;55.50;101777.38;5061632;28;46104;-63
2022/10/09 04:57:39;;;;;;;;;4.00;4.00;;;;;13.04;55.43;101770.31;5062002;28;45387;-63
2022/10/09 05:00:05;;;;;;;;;6.00;4.00;;;;;13.02;55.47;101770.34;5043371;28;45722;-63
2022/10/09 05:02:30;;;;;;;;;4.50;4.50;;;;;12.96;55.41;101755.34;5059653;28;45502;-62
2022/10/09 05:04:56;;;;;;;;;4.25;4.25;;;;;12.94;55.32;101757.16;5057715;28;46277;-62
2022/10/09 05:07:22;;;;;;;;;5.00;5.00;;;;;12.91;55.51;101748.31;5060898;28;45538;-63
2022/10/09 05:09:48;;;;;;;;;3.75;3.75;;;;;12.86;55.65;101751.09;5061485;28;45601;-63
2022/10/09 05:12:13;;;;;;;;;4.75;4.75;;;;;12.85;55.45;101749.38;5040673;28;45635;-62
2022/10/09 05:14:39;;;;;;;;;3.50;2.75;;;;;12.85;55.55;101745.81;5060930;28;45256;-63
2022/10/09 05:17:04;;;;;;;;;4.25;3.50;;;;;12.83;55.57;101747.63;5061732;28;45426;-62
2022/10/09 05:19:31;;;;;;;;;4.00;3.00;;;;;12.80;55.57;101740.56;5060955;28;45312;-62
2022/10/09 05:21:57;;;;;;;;;3.50;2.00;;;;;12.76;55.52;101745.13;5061474;28;45470;-63
2022/10/09 05:24:22;;;;;;;;;3.75;3.25;;;;;12.74;55.63;101746.06;5061203;28;46232;-63
2022/10/09 05:26:48;;;;;;;;;5.00;4.00;;;;;12.69;55.92;101737.28;5061340;28;45340;-63
2022/10/09 05:29:13;;;;;;;;;4.00;4.00;;;;;12.63;55.31;101737.41;5061470;28;45375;-63
2022/10/09 05:31:38;;;;;;;;;4.00;4.00;;;;;12.52;55.81;101722.50;5061442;28;45353;-63
2022/10/09 05:34:04;;;;;;;;;6.00;4.00;;;;;12.61;56.03;101737.44;5052756;28;45447;-63
2022/10/09 05:36:29;;;;;;;;;4.00;4.00;;;;;12.57;55.77;101742.00;5060367;28;45587;-63
2022/10/09 05:38:56;;;;;;;;;4.00;4.00;;;;;12.52;55.71;101732.34;5060204;28;45497;-63
2022/10/09 05:41:21;;;;;;;;;5.75;5.00;;;;;12.48;55.19;101731.53;5058625;28;45515;-62
2022/10/09 05:43:48;;;;;;;;;5.00;4.00;;;;;12.45;55.79;101734.28;5061108;28;46193;-62
2022/10/09 05:46:19;;;;;;;;;4.00;3.75;;;;;12.42;55.77;101732.56;5061181;28;45523;-62
2022/10/09 05:48:52;;;;;;;;;3.50;3.50;;;;;12.42;56.11;101734.34;5060657;28;45336;-63
2022/10/09 05:51:21;;;;;;;;;4.75;4.75;;;;;12.43;56.17;101736.13;5060955;28;45366;-63
2022/10/09 05:53:47;;;;;;;;;5.00;4.00;;;;;12.42;56.09;101726.31;5058677;28;45316;-63
2022/10/09 05:56:22;;;;;;;;;3.50;3.50;;;;;12.39;56.50;101726.41;5059951;28;45557;-63
2022/10/09 05:58:53;;;;;;;;;6.00;2.75;;;;;12.43;55.94;101730.78;5061010;28;45335;-62
2022/10/09 06:01:19;;;;;;;;;4.75;3.75;;;;;12.42;56.18;101729.00;5060660;28;45400;-63
2022/10/09 06:03:49;;;;;;;;;4.50;3.25;;;;;12.42;56.42;101727.19;5052476;28;46462;-62
2022/10/09 06:06:15;;;;;;;;;3.00;3.00;;;;;12.34;56.16;101712.25;5060460;28;45686;-62
2022/10/09 06:08:41;;;;;;;;;4.00;3.00;;;;;12.38;56.29;101722.84;5061216;28;45626;-63
2022/10/09 06:11:15;;;;;;;;;4.00;2.25;;;;;12.41;56.44;101727.22;5060548;28;45454;-63
2022/10/09 06:13:42;;;;;;;;;5.75;4.50;;;;;12.40;56.21;101722.81;5060561;28;45472;-62
2022/10/09 06:16:10;;;;;;;;;5.25;4.25;;;;;12.39;56.05;101724.59;5060639;28;45615;-63
2022/10/09 06:18:36;;;;;;;;;5.00;5.00;;;;;12.39;56.20;101723.72;5060500;28;45351;-62
2022/10/09 06:21:02;;;;;;;;;7.25;3.00;;;;;12.40;56.49;101725.50;5059942;28;45530;-63
2022/10/09 06:23:28;;;;;;;;;7.00;7.00;;;;;12.38;56.68;101717.50;5058778;28;46553;-63
2022/10/09 06:25:56;;;;;;;;;6.00;6.00;;;;;12.32;56.63;101712.28;5040863;28;45553;-64
2022/10/09 06:28:22;;;;;;;;;4.75;4.75;;;;;12.37;56.46;101713.03;5060802;28;45447;-64
2022/10/09 06:30:48;;;;;;;;;6.75;5.75;;;;;12.41;56.37;101719.19;5041844;28;45454;-64
2022/10/09 06:33:14;;;;;;;;;5.00;4.75;;;;;12.42;56.35;101712.94;5059476;28;45509;-64
2022/10/09 06:35:40;;;;;;;;;5.00;5.00;;;;;12.40;56.26;101710.28;5056003;28;45359;-64
2022/10/09 06:38:06;;;;;;;;;4.00;3.00;;;;;12.43;56.17;101720.06;5058952;28;45387;-64
2022/10/09 06:40:36;;;;;;;;;4.75;4.25;;;;;12.41;56.36;101714.75;5060045;28;45336;-64
2022/10/09 06:43:03;;;;;;;;;5.00;3.75;;;;;12.41;56.25;101720.09;5060148;28;46175;-64
2022/10/09 06:45:29;;;;;;;;;5.25;4.75;;;;;12.40;56.06;101720.13;5060377;28;45331;-64
2022/10/09 06:47:54;;;;;;;;;4.50;4.50;;;;;12.38;56.03;101714.81;5059783;28;45613;-64
2022/10/09 06:50:20;;;;;;;;;2.75;1.50;;;;;12.36;56.06;101711.31;5042186;28;45466;-64
2022/10/09 06:52:45;;;;;;;;;3.75;3.75;;;;;12.38;56.52;101721.97;5059626;28;45383;-64
2022/10/09 06:55:10;;;;;;;;;5.00;4.75;;;;;12.39;56.29;101721.03;5059974;28;45363;-64
2022/10/09 06:57:36;;;;;;;;;7.50;5.25;;;;;12.37;56.84;101722.88;5058801;28;45423;-64
2022/10/09 07:00:03;;;;;;;;;7.75;6.00;;;;;12.37;56.77;101717.53;5059953;28;45318;-64
2022/10/09 07:02:31;;;;;;;;;7.25;5.50;;;;;12.39;56.76;101721.03;5059694;28;45312;-64
2022/10/09 07:04:56;;;;;;;;;5.00;4.25;;;;;12.39;56.68;101718.38;5059278;28;45764;-63
2022/10/09 07:07:21;;;;;;;;;8.75;5.75;;;;;12.40;56.62;101702.25;5056912;28;45467;-62
2022/10/09 07:09:47;;;;;;;;;7.75;6.50;;;;;12.41;56.90;101709.38;5059009;28;45709;-62
2022/10/09 07:12:12;;;;;;;;;5.75;4.75;;;;;12.43;56.55;101706.69;5064420;28;46079;-62
2022/10/09 07:14:37;;;;;;;;;7.00;5.00;;;;;12.40;56.59;101696.03;5058556;28;45691;-61
2022/10/09 07:17:04;;;;;;;;;5.25;5.00;;;;;12.42;56.39;101704.91;5058914;28;45386;-63
2022/10/09 07:19:30;;;;;;;;;5.75;5.00;;;;;12.48;57.02;101698.50;5059631;28;45387;-63
2022/10/09 07:21:55;;;;;;;;;7.75;6.50;;;;;12.42;56.39;101696.88;5058637;28;45353;-63
2022/10/09 07:24:23;;;;;;;;;4.50;4.50;;;;;12.39;56.14;101699.63;5059464;28;45350;-63
2022/10/09 07:26:49;;;;;;;;;5.00;5.00;;;;;12.38;56.26;101696.06;5058835;28;45547;-63
2022/10/09 07:29:16;;;;;;;;;4.25;4.25;;;;;12.40;56.95;101698.72;5041461;28;45551;-63
2022/10/09 07:31:42;;;;;;;;;6.25;5.75;;;;;12.30;56.08;101678.44;5041131;28;47898;-63
2022/10/09 07:34:08;;;;;;;;;4.50;4.00;;;;;12.30;56.64;101678.44;5036818;28;45780;-63
2022/10/09 07:36:34;;;;;;;;;5.75;4.25;;;;;12.42;56.74;101688.84;5041318;28;45409;-63
2022/10/09 07:39:00;;;;;;;;;6.00;4.00;;;;;12.47;56.73;101688.72;5057394;28;45732;-63
2022/10/09 07:41:28;;;;;;;;;3.50;3.00;;;;;12.46;56.57;101686.97;5058868;28;46271;-63
2022/10/09 07:43:54;;;;;;;;;5.00;4.50;;;;;12.46;56.79;101687.84;5058259;28;45263;-64
2022/10/09 07:46:22;;;;;;;;;7.75;6.50;;;;;12.51;56.70;101695.75;5057498;28;45407;-64
2022/10/09 07:48:48;;;;;;;;;6.00;4.00;;;;;12.52;56.89;101692.16;5058281;28;45449;-63
2022/10/09 07:51:25;;;;;;;;;5.00;5.00;;;;;12.47;56.47;101676.22;5059034;28;45955;-63
2022/10/09 07:53:52;;;;;;;;;4.75;4.75;;;;;12.54;56.57;101685.84;5057709;28;45535;-63
2022/10/09 07:56:34;;;;;;;;;4.50;4.50;;;;;12.54;56.63;101679.63;5058221;28;45350;-63
2022/10/09 07:59:05;;;;;;;;;4.50;3.75;;;;;12.62;56.50;101685.66;5057371;28;45443;-63
2022/10/09 08:01:31;;;;;;;;;6.00;4.75;;;;;12.60;56.58;101688.38;5047795;28;46928;-63
2022/10/09 08:03:58;;;;;;;;;6.00;4.50;;;;;12.59;56.53;101686.59;5058109;28;45513;-63
2022/10/09 08:06:23;;;;;;;;;7.75;6.75;;;;;12.54;56.38;101675.13;5058272;28;45487;-64
2022/10/09 08:08:53;;;;;;;;;11.50;7.25;;;;;12.57;56.92;101684.91;5057109;28;45319;-63
2022/10/09 08:11:20;;;;;;;;;4.50;4.50;;;;;12.60;56.77;101677.66;5058061;28;45336;-63
2022/10/09 08:13:47;;;;;;;;;6.75;5.50;;;;;12.63;56.79;101675.81;5058076;28;45510;-63
2022/10/09 08:16:12;;;;;;;;;4.00;4.00;;;;;12.63;57.05;101675.81;5058698;28;45749;-63
2022/10/09 08:18:38;;;;;;;;;5.50;4.50;;;;;12.68;57.43;101672.13;5055700;28;45378;-64
2022/10/09 08:21:10;;;;;;;;;5.00;5.00;;;;;12.68;57.29;101663.16;5056686;28;45545;-63
2022/10/09 08:23:35;;;;;;;;;5.00;5.00;;;;;12.66;57.09;101659.66;5056160;28;45710;-63
2022/10/09 08:26:01;;;;;;;;;5.25;5.25;;;;;12.76;56.66;101667.44;5057457;28;45401;-63
2022/10/09 08:28:27;;;;;;;;;5.75;5.75;;;;;12.71;57.38;101658.63;5042717;28;45635;-63
2022/10/09 08:30:52;;;;;;;;;7.00;6.00;;;;;12.74;57.12;101654.97;5056771;28;45395;-63
2022/10/09 08:33:20;;;;;;;;;7.00;7.00;;;;;12.75;56.84;101646.03;5057034;28;45581;-63
2022/10/09 08:35:47;;;;;;;;;5.00;5.00;;;;;12.77;57.04;101647.75;5040536;28;45415;-63
2022/10/09 08:38:13;;;;;;;;;6.25;5.75;;;;;12.81;57.20;101648.53;5042277;28;45659;-63
2022/10/09 08:40:59;;;;;;;;;5.75;5.75;;;;;12.94;57.11;101658.00;5039938;28;46766;-63
2022/10/09 08:43:33;;;;;;;;;6.50;5.50;;;;;12.88;57.12;101635.84;5055438;28;45416;-63
2022/10/09 08:46:06;;;;;;;;;7.75;7.00;;;;;12.96;57.10;101640.09;5058615;28;45397;-64
2022/10/09 08:48:38;;;;;;;;;7.00;5.00;;;;;13.00;56.70;101630.16;5011156;28;45793;-63
2022/10/09 08:51:11;;;;;;;;;9.50;7.50;;;;;13.05;57.11;101632.72;5058423;28;45450;-64
2022/10/09 08:54:05;;;;;;;;;9.50;9.50;;;;;13.19;57.24;101638.53;5054211;28;45679;-64
2022/10/09 08:56:33;;;;;;;;;6.25;6.00;;;;;13.23;57.59;101642.91;5039393;28;45403;-64
2022/10/09 08:58:58;;;;;;;;;8.50;7.25;;;;;13.22;57.56;101626.88;5039565;28;45890;-64
2022/10/09 09:01:51;;;;;;;;;8.00;7.50;;;;;13.31;57.39;101621.22;5044123;28;47104;-64
2022/10/09 09:04:36;;;;;;;;;8.00;7.00;;;;;13.31;57.30;101614.06;5054868;28;45430;-64
2022/10/09 09:07:04;;;;;;;;;5.00;4.75;;;;;13.47;57.56;101630.59;5045412;28;45554;-64
2022/10/09 09:09:50;;;;;;;;;8.00;6.75;;;;;13.48;56.97;101610.00;5049464;28;45738;-63
2022/10/09 09:12:46;;;;;;;;;7.25;7.25;;;;;13.55;56.86;101616.06;5050305;28;45859;-63
2022/10/09 09:15:24;;;;;;;;;8.50;8.50;;;;;13.48;56.62;101591.22;5015587;28;46365;-64
2022/10/09 09:18:17;;;;;;;;;10.00;8.50;;;;;13.62;56.59;101610.47;5053001;28;45446;-64
2022/10/09 09:20:52;;;;;;;;;9.50;7.00;;;;;13.63;56.91;101606.88;5046381;28;45599;-63
2022/10/09 09:23:33;;;;;;;;;7.75;7.75;;;;;13.62;57.26;101588.13;5051085;28;45509;-63
2022/10/09 09:26:00;;;;;;;;;5.25;5.00;;;;;13.70;57.09;101592.31;5050019;28;46073;-63
2022/10/09 09:28:33;;;;;;;;;4.00;4.00;;;;;13.83;56.92;101597.28;5053166;28;45705;-63
2022/10/09 09:31:13;;;;;;;;;5.00;5.00;;;;;13.85;57.25;101587.41;5056099;28;45537;-63
2022/10/09 09:33:49;;;;;;;;;6.00;6.00;;;;;13.90;57.54;101577.41;5054909;28;46237;-63
2022/10/09 09:36:27;;;;;;;;;5.75;5.00;;;;;14.07;57.32;101591.13;5054414;28;45433;-63
2022/10/09 09:38:52;;;;;;;;;5.00;5.00;;;;;14.14;57.21;101583.72;5056030;28;46140;-63
2022/10/09 09:41:18;;;;;;;;;7.00;5.75;;;;;14.23;57.09;101582.53;5041260;28;45731;-63
2022/10/09 09:43:43;;;;;;;;;6.50;5.25;;;;;14.31;57.09;101583.16;5056672;28;45570;-63
2022/10/09 09:46:22;;;;;;;;;5.25;5.25;;;;;14.29;57.08;101555.47;5056116;28;45729;-63
2022/10/09 09:48:48;;;;;;;;;7.00;4.25;;;;;14.43;56.95;101573.78;5056288;28;45708;-63
2022/10/09 09:51:18;;;;;;;;;7.25;5.50;;;;;14.50;56.55;101572.66;5056413;28;45387;-63
2022/10/09 09:53:48;;;;;;;;;7.25;6.00;;;;;14.52;56.25;101561.88;5056255;28;46259;-63
2022/10/09 09:56:15;;;;;;;;;7.50;6.50;;;;;14.51;56.18;101562.78;5056386;28;45447;-63
2022/10/09 09:58:48;;;;;;;;;5.00;5.00;;;;;14.50;55.92;101555.63;5055022;28;45782;-63
2022/10/09 10:01:26;;;;;;;;;7.00;5.50;;;;;14.62;56.10;101556.13;5048085;28;45750;-63
2022/10/09 10:03:54;;;;;;;;;3.25;2.75;;;;;14.61;56.25;101545.44;5037335;28;48501;-63
2022/10/09 10:06:21;;;;;;;;;5.50;4.00;;;;;14.66;56.66;101539.88;5036591;28;45657;-63
2022/10/09 10:09:04;;;;;;;;;6.00;6.00;;;;;14.74;56.38;101535.13;5048435;28;45996;-63
2022/10/09 10:11:31;;;;;;;;;4.00;4.00;;;;;14.86;56.07;101533.78;5055738;28;46200;-63
2022/10/09 10:14:03;;;;;;;;;4.00;4.00;;;;;14.98;56.54;101541.38;5056509;28;45522;-63
2022/10/09 10:16:32;;;;;;;;;5.00;5.00;;;;;15.03;56.33;101531.31;5044757;28;45423;-63
2022/10/09 10:18:58;;;;;;;;;6.00;5.75;;;;;15.00;56.36;101504.53;5051735;28;45565;-64
2022/10/09 10:21:23;;;;;;;;;4.75;4.75;;;;;15.13;56.01;101508.50;5057130;28;45557;-64
2022/10/09 10:23:59;;;;;;;;;3.75;3.75;;;;;15.17;56.10;101512.84;5035733;28;45480;-63
2022/10/09 10:26:43;;;;;;;;;5.00;4.00;;;;;15.32;55.75;101513.19;5060106;28;45973;-63
2022/10/09 10:29:40;;;;;;;;;4.00;4.00;;;;;15.40;55.73;101518.22;5043136;28;45550;-63
2022/10/09 10:32:41;;;;;;;;;2.75;2.75;;;;;15.46;55.78;101500.03;5038506;28;45545;-61
2022/10/09 10:35:16;;;;;;;;;4.75;4.75;;;;;15.57;55.81;101504.97;5046973;28;45588;-63
2022/10/09 10:38:05;;;;;;;;;4.00;4.00;;;;;15.63;55.55;101503.84;5054912;28;45798;-63
2022/10/09 10:40:55;;;;;;;;;5.00;5.00;;;;;15.69;55.54;101496.38;5045481;28;45620;-63
2022/10/09 10:43:41;;;;;;;;;3.75;3.75;;;;;15.78;55.30;101495.16;5055721;28;45472;-63
2022/10/09 10:46:30;;;;;;;;;3.50;3.25;;;;;15.86;55.66;101489.47;5055821;28;47348;-63
2022/10/09 10:48:58;;;;;;;;;4.00;4.00;;;;;15.87;55.16;101480.41;5054583;28;45470;-63
2022/10/09 10:51:39;;;;;;;;;4.50;4.50;;;;;15.98;55.18;101486.22;5056018;28;45448;-63
2022/10/09 10:54:22;;;;;;;;;4.25;4.25;;;;;16.05;55.04;101485.00;5053885;28;45556;-65
2022/10/09 10:56:50;;;;;;;;;4.25;3.50;;;;;16.04;54.74;101466.25;5047432;28;45477;-65
2022/10/09 10:59:33;;;;;;;;;5.00;3.50;;;;;16.07;55.00;101466.09;5055666;28;45751;-65
2022/10/09 11:02:10;;;;;;;;;5.00;5.00;;;;;16.16;54.67;101449.53;5055502;28;45705;-65
2022/10/09 11:04:49;;;;;;;;;4.00;4.00;;;;;16.17;55.07;101442.31;5055090;28;45665;-65
2022/10/09 11:07:40;;;;;;;;;7.00;4.00;;;;;16.16;54.79;101428.00;5037605;28;47206;-65
2022/10/09 11:10:16;;;;;;;;;4.75;4.25;;;;;16.38;54.53;101451.28;5055750;28;45643;-66
2022/10/09 11:12:51;;;;;;;;;4.50;3.00;;;;;16.34;54.28;101428.09;5055798;28;45680;-66
2022/10/09 11:15:36;;;;;;;;;5.75;4.00;;;;;16.49;54.06;101440.88;5038531;28;45835;-65
2022/10/09 11:18:28;;;;;;;;;3.75;3.75;;;;;16.55;54.20;101423.53;5055920;28;45655;-66
2022/10/09 11:21:08;;;;;;;;;2.75;2.75;;;;;16.62;54.10;101428.59;5051662;28;45757;-65
2022/10/09 11:23:56;;;;;;;;;4.00;3.00;;;;;16.64;53.99;101415.03;5054325;28;45671;-66
2022/10/09 11:26:38;;;;;;;;;5.00;4.00;;;;;16.71;53.53;101415.63;5037313;28;45496;-65
2022/10/09 11:29:27;;;;;;;;;3.00;3.00;;;;;16.77;54.10;101424.31;5043463;28;45488;-66
2022/10/09 11:32:01;;;;;;;;;4.00;4.00;;;;;16.81;54.17;101415.09;5061939;28;45580;-66
2022/10/09 11:34:37;;;;;;;;;6.75;3.00;;;;;16.86;53.82;101401.44;5054769;28;45534;-66
2022/10/09 11:37:12;;;;;;;;;4.50;3.50;;;;;16.96;53.69;101407.28;5042894;28;45523;-66